Terminal Aerodrome Forecast
Issued by NWS Quad Cities IA IL

Home | Current Version | Previous Version | Text Only | Print | Product List | Glossary Off
Versions: 1 2 3 4 5 6 7 8 9 10 11 12

000
FTUS43 KDVN 120500
TAFDBQ
TAF
KDBQ 120520Z 1206/1306 16008KT P6SM BKN030 BKN060
     FM121100 15006KT P6SM VCTS BKN015CB OVC025
     FM121600 19005KT P6SM SCT035 BKN100
     FM122300 21005KT P6SM OVC100=

USA.gov is the U.S. government's official web portal to all federal, state and local government web resources and services.